sensor_id;sensor_type;location;lat;lon;timestamp;temperature;humidity
44037;DHT22;62488;-37.670;-63.532;2022-09-25T00:00:12;14.40;99.90
44037;DHT22;62488;-37.670;-63.532;2022-09-25T00:02:51;14.30;99.90
44037;DHT22;62488;-37.670;-63.532;2022-09-25T00:06:05;14.30;99.90
44037;DHT22;62488;-37.670;-63.532;2022-09-25T00:08:35;14.20;99.90
44037;DHT22;62488;-37.670;-63.532;2022-09-25T00:11:07;14.10;99.90
44037;DHT22;62488;-37.670;-63.532;2022-09-25T00:13:36;14.00;99.90
44037;DHT22;62488;-37.670;-63.532;2022-09-25T00:16:04;13.90;99.90
44037;DHT22;62488;-37.670;-63.532;2022-09-25T00:18:32;13.80;99.90
44037;DHT22;62488;-37.670;-63.532;2022-09-25T00:21:21;13.80;99.90
44037;DHT22;62488;-37.670;-63.532;2022-09-25T00:23:49;13.70;99.90
44037;DHT22;62488;-37.670;-63.532;2022-09-25T00:26:19;13.70;99.90
44037;DHT22;62488;-37.670;-63.532;2022-09-25T00:28:49;13.70;99.90
44037;DHT22;62488;-37.670;-63.532;2022-09-25T00:31:20;13.70;99.90
44037;DHT22;62488;-37.670;-63.532;2022-09-25T00:34:19;13.70;99.90
44037;DHT22;62488;-37.670;-63.532;2022-09-25T00:37:24;13.60;99.90
44037;DHT22;62488;-37.670;-63.532;2022-09-25T00:40:15;13.60;99.90
44037;DHT22;62488;-37.670;-63.532;2022-09-25T00:42:47;13.60;99.90
44037;DHT22;62488;-37.670;-63.532;2022-09-25T00:45:22;13.60;99.90
44037;DHT22;62488;-37.670;-63.532;2022-09-25T00:48:03;13.70;99.90
44037;DHT22;62488;-37.670;-63.532;2022-09-25T00:50:47;13.60;99.90
44037;DHT22;62488;-37.670;-63.532;2022-09-25T00:53:26;13.50;99.90
44037;DHT22;62488;-37.670;-63.532;2022-09-25T00:56:04;13.50;99.90
44037;DHT22;62488;-37.670;-63.532;2022-09-25T00:58:34;13.50;99.90
44037;DHT22;62488;-37.670;-63.532;2022-09-25T01:01:03;13.50;99.90
44037;DHT22;62488;-37.670;-63.532;2022-09-25T01:03:35;13.40;99.90
44037;DHT22;62488;-37.670;-63.532;2022-09-25T01:06:09;13.40;99.90
44037;DHT22;62488;-37.670;-63.532;2022-09-25T01:08:38;13.50;99.90
44037;DHT22;62488;-37.670;-63.532;2022-09-25T01:11:06;13.50;99.90
44037;DHT22;62488;-37.670;-63.532;2022-09-25T01:13:34;13.60;99.90
44037;DHT22;62488;-37.670;-63.532;2022-09-25T01:16:20;13.60;99.90
44037;DHT22;62488;-37.670;-63.532;2022-09-25T01:19:14;13.70;99.90
44037;DHT22;62488;-37.670;-63.532;2022-09-25T01:21:58;13.80;99.90
44037;DHT22;62488;-37.670;-63.532;2022-09-25T01:24:47;13.80;99.90
44037;DHT22;62488;-37.670;-63.532;2022-09-25T01:27:51;13.80;99.90
44037;DHT22;62488;-37.670;-63.532;2022-09-25T01:30:44;13.80;99.90
44037;DHT22;62488;-37.670;-63.532;2022-09-25T01:33:44;13.60;99.90
44037;DHT22;62488;-37.670;-63.532;2022-09-25T01:36:48;13.60;99.90
44037;DHT22;62488;-37.670;-63.532;2022-09-25T01:39:21;13.40;99.90
44037;DHT22;62488;-37.670;-63.532;2022-09-25T01:42:13;13.40;99.90
44037;DHT22;62488;-37.670;-63.532;2022-09-25T01:44:49;13.40;99.90
44037;DHT22;62488;-37.670;-63.532;2022-09-25T01:47:26;13.40;99.90
44037;DHT22;62488;-37.670;-63.532;2022-09-25T01:50:07;13.40;99.90
44037;DHT22;62488;-37.670;-63.532;2022-09-25T01:52:43;13.40;99.90
44037;DHT22;62488;-37.670;-63.532;2022-09-25T01:57:58;13.40;99.90
44037;DHT22;62488;-37.670;-63.532;2022-09-25T02:00:29;13.40;99.90
44037;DHT22;62488;-37.670;-63.532;2022-09-25T02:03:15;13.40;99.90
44037;DHT22;62488;-37.670;-63.532;2022-09-25T02:05:47;13.50;99.90
44037;DHT22;62488;-37.670;-63.532;2022-09-25T02:08:28;13.50;99.90
44037;DHT22;62488;-37.670;-63.532;2022-09-25T02:11:00;13.50;99.90
44037;DHT22;62488;-37.670;-63.532;2022-09-25T02:13:42;13.50;99.90
44037;DHT22;62488;-37.670;-63.532;2022-09-25T02:16:14;13.50;99.90
44037;DHT22;62488;-37.670;-63.532;2022-09-25T02:18:47;13.50;99.90
44037;DHT22;62488;-37.670;-63.532;2022-09-25T02:21:53;13.40;99.90
44037;DHT22;62488;-37.670;-63.532;2022-09-25T02:24:51;13.40;99.90
44037;DHT22;62488;-37.670;-63.532;2022-09-25T02:28:14;13.40;99.90
44037;DHT22;62488;-37.670;-63.532;2022-09-25T02:30:46;13.40;99.90
44037;DHT22;62488;-37.670;-63.532;2022-09-25T02:33:15;13.40;99.90
44037;DHT22;62488;-37.670;-63.532;2022-09-25T02:35:45;13.40;99.90
44037;DHT22;62488;-37.670;-63.532;2022-09-25T02:38:16;13.40;99.90
44037;DHT22;62488;-37.670;-63.532;2022-09-25T02:43:38;13.30;99.90
44037;DHT22;62488;-37.670;-63.532;2022-09-25T02:46:23;13.30;99.90
44037;DHT22;62488;-37.670;-63.532;2022-09-25T02:52:04;13.40;99.90
44037;DHT22;62488;-37.670;-63.532;2022-09-25T02:54:47;13.40;99.90
44037;DHT22;62488;-37.670;-63.532;2022-09-25T02:57:39;13.40;99.90
44037;DHT22;62488;-37.670;-63.532;2022-09-25T03:00:09;13.50;99.90
44037;DHT22;62488;-37.670;-63.532;2022-09-25T03:02:43;13.50;99.90
44037;DHT22;62488;-37.670;-63.532;2022-09-25T03:05:20;13.50;99.90
44037;DHT22;62488;-37.670;-63.532;2022-09-25T03:08:15;13.40;99.90
44037;DHT22;62488;-37.670;-63.532;2022-09-25T03:12:23;13.40;99.90
44037;DHT22;62488;-37.670;-63.532;2022-09-25T03:17:52;13.30;99.90
44037;DHT22;62488;-37.670;-63.532;2022-09-25T03:31:29;13.30;99.90
44037;DHT22;62488;-37.670;-63.532;2022-09-25T03:34:15;13.40;99.90
44037;DHT22;62488;-37.670;-63.532;2022-09-25T03:37:14;13.50;99.90
44037;DHT22;62488;-37.670;-63.532;2022-09-25T03:39:52;13.50;99.90
44037;DHT22;62488;-37.670;-63.532;2022-09-25T03:42:28;13.60;99.90
44037;DHT22;62488;-37.670;-63.532;2022-09-25T03:44:59;13.60;99.90
44037;DHT22;62488;-37.670;-63.532;2022-09-25T03:47:29;13.70;99.90
44037;DHT22;62488;-37.670;-63.532;2022-09-25T03:50:00;13.80;99.90
44037;DHT22;62488;-37.670;-63.532;2022-09-25T03:52:27;13.70;99.90
44037;DHT22;62488;-37.670;-63.532;2022-09-25T03:54:59;13.50;99.90
44037;DHT22;62488;-37.670;-63.532;2022-09-25T03:58:02;13.50;99.90
44037;DHT22;62488;-37.670;-63.532;2022-09-25T04:04:55;13.40;99.90
44037;DHT22;62488;-37.670;-63.532;2022-09-25T04:07:44;13.20;99.90
44037;DHT22;62488;-37.670;-63.532;2022-09-25T04:10:13;13.20;99.90
44037;DHT22;62488;-37.670;-63.532;2022-09-25T04:12:45;13.20;99.90
44037;DHT22;62488;-37.670;-63.532;2022-09-25T04:15:13;13.20;99.90
44037;DHT22;62488;-37.670;-63.532;2022-09-25T04:17:40;13.00;99.90
44037;DHT22;62488;-37.670;-63.532;2022-09-25T04:20:07;12.90;99.90
44037;DHT22;62488;-37.670;-63.532;2022-09-25T04:22:35;12.80;99.90
44037;DHT22;62488;-37.670;-63.532;2022-09-25T04:25:08;12.60;99.90
44037;DHT22;62488;-37.670;-63.532;2022-09-25T04:27:38;12.50;99.90
44037;DHT22;62488;-37.670;-63.532;2022-09-25T04:30:16;12.40;99.90
44037;DHT22;62488;-37.670;-63.532;2022-09-25T04:32:57;12.30;99.90
44037;DHT22;62488;-37.670;-63.532;2022-09-25T04:35:43;12.20;99.90
44037;DHT22;62488;-37.670;-63.532;2022-09-25T04:38:10;12.10;99.90
44037;DHT22;62488;-37.670;-63.532;2022-09-25T04:40:37;12.00;99.90
44037;DHT22;62488;-37.670;-63.532;2022-09-25T04:43:15;12.00;99.90
44037;DHT22;62488;-37.670;-63.532;2022-09-25T04:46:09;12.00;99.90
44037;DHT22;62488;-37.670;-63.532;2022-09-25T04:48:46;11.90;99.90
44037;DHT22;62488;-37.670;-63.532;2022-09-25T04:51:17;11.90;99.90
44037;DHT22;62488;-37.670;-63.532;2022-09-25T04:53:44;12.00;99.90
44037;DHT22;62488;-37.670;-63.532;2022-09-25T04:56:12;11.90;99.90
44037;DHT22;62488;-37.670;-63.532;2022-09-25T04:58:46;11.90;99.90
44037;DHT22;62488;-37.670;-63.532;2022-09-25T05:01:17;11.90;99.90
44037;DHT22;62488;-37.670;-63.532;2022-09-25T05:03:52;11.80;99.90
44037;DHT22;62488;-37.670;-63.532;2022-09-25T05:06:28;11.70;99.90
44037;DHT22;62488;-37.670;-63.532;2022-09-25T05:08:56;11.70;99.90
44037;DHT22;62488;-37.670;-63.532;2022-09-25T05:11:25;11.60;99.90
44037;DHT22;62488;-37.670;-63.532;2022-09-25T05:13:54;11.60;99.90
44037;DHT22;62488;-37.670;-63.532;2022-09-25T05:16:21;11.60;99.90
44037;DHT22;62488;-37.670;-63.532;2022-09-25T05:18:48;11.50;99.90
44037;DHT22;62488;-37.670;-63.532;2022-09-25T05:21:15;11.50;99.90
44037;DHT22;62488;-37.670;-63.532;2022-09-25T05:23:43;11.40;99.90
44037;DHT22;62488;-37.670;-63.532;2022-09-25T05:26:11;11.40;99.90
44037;DHT22;62488;-37.670;-63.532;2022-09-25T05:28:42;11.50;99.90
44037;DHT22;62488;-37.670;-63.532;2022-09-25T05:31:09;11.50;99.90
44037;DHT22;62488;-37.670;-63.532;2022-09-25T05:33:36;11.60;99.90
44037;DHT22;62488;-37.670;-63.532;2022-09-25T05:36:05;11.50;99.90
44037;DHT22;62488;-37.670;-63.532;2022-09-25T05:38:36;11.50;99.90
44037;DHT22;62488;-37.670;-63.532;2022-09-25T05:41:07;11.60;99.90
44037;DHT22;62488;-37.670;-63.532;2022-09-25T05:43:39;11.60;99.90
44037;DHT22;62488;-37.670;-63.532;2022-09-25T05:46:06;11.70;99.90
44037;DHT22;62488;-37.670;-63.532;2022-09-25T05:48:34;11.90;99.90
44037;DHT22;62488;-37.670;-63.532;2022-09-25T05:51:01;12.10;99.90
44037;DHT22;62488;-37.670;-63.532;2022-09-25T05:53:30;12.20;99.90
44037;DHT22;62488;-37.670;-63.532;2022-09-25T05:55:59;12.30;99.90
44037;DHT22;62488;-37.670;-63.532;2022-09-25T05:58:28;12.40;99.90
44037;DHT22;62488;-37.670;-63.532;2022-09-25T06:01:04;12.50;99.90
44037;DHT22;62488;-37.670;-63.532;2022-09-25T06:03:31;12.60;99.90
44037;DHT22;62488;-37.670;-63.532;2022-09-25T06:06:02;12.50;99.90
44037;DHT22;62488;-37.670;-63.532;2022-09-25T06:08:29;12.40;99.90
44037;DHT22;62488;-37.670;-63.532;2022-09-25T06:11:04;12.30;99.90
44037;DHT22;62488;-37.670;-63.532;2022-09-25T06:13:32;12.20;99.90
44037;DHT22;62488;-37.670;-63.532;2022-09-25T06:16:01;12.20;99.90
44037;DHT22;62488;-37.670;-63.532;2022-09-25T06:18:28;12.10;99.90
44037;DHT22;62488;-37.670;-63.532;2022-09-25T06:21:11;12.10;99.90
44037;DHT22;62488;-37.670;-63.532;2022-09-25T06:24:02;12.00;99.90
44037;DHT22;62488;-37.670;-63.532;2022-09-25T06:26:29;12.00;99.90
44037;DHT22;62488;-37.670;-63.532;2022-09-25T06:29:04;11.90;99.90
44037;DHT22;62488;-37.670;-63.532;2022-09-25T06:31:37;11.90;99.90
44037;DHT22;62488;-37.670;-63.532;2022-09-25T06:34:08;11.90;99.90
44037;DHT22;62488;-37.670;-63.532;2022-09-25T06:36:37;11.90;99.90
44037;DHT22;62488;-37.670;-63.532;2022-09-25T06:39:04;11.80;99.90
44037;DHT22;62488;-37.670;-63.532;2022-09-25T06:41:33;11.80;99.90
44037;DHT22;62488;-37.670;-63.532;2022-09-25T06:44:02;11.80;99.90
44037;DHT22;62488;-37.670;-63.532;2022-09-25T06:46:29;11.70;99.90
44037;DHT22;62488;-37.670;-63.532;2022-09-25T06:48:57;11.70;99.90
44037;DHT22;62488;-37.670;-63.532;2022-09-25T06:51:25;11.60;99.90
44037;DHT22;62488;-37.670;-63.532;2022-09-25T06:53:57;11.60;99.90
44037;DHT22;62488;-37.670;-63.532;2022-09-25T06:56:30;11.50;99.90
44037;DHT22;62488;-37.670;-63.532;2022-09-25T06:59:16;11.40;99.90
44037;DHT22;62488;-37.670;-63.532;2022-09-25T07:02:16;11.40;99.90
44037;DHT22;62488;-37.670;-63.532;2022-09-25T07:05:05;11.40;99.90
44037;DHT22;62488;-37.670;-63.532;2022-09-25T07:07:37;11.30;99.90
44037;DHT22;62488;-37.670;-63.532;2022-09-25T07:10:05;11.30;99.90
44037;DHT22;62488;-37.670;-63.532;2022-09-25T07:12:32;11.30;99.90
44037;DHT22;62488;-37.670;-63.532;2022-09-25T07:14:59;11.20;99.90
44037;DHT22;62488;-37.670;-63.532;2022-09-25T07:17:27;11.20;99.90
44037;DHT22;62488;-37.670;-63.532;2022-09-25T07:20:00;11.20;99.90
44037;DHT22;62488;-37.670;-63.532;2022-09-25T07:22:28;11.20;99.90
44037;DHT22;62488;-37.670;-63.532;2022-09-25T07:24:56;11.10;99.90
44037;DHT22;62488;-37.670;-63.532;2022-09-25T07:27:23;11.20;99.90
44037;DHT22;62488;-37.670;-63.532;2022-09-25T07:29:51;11.20;99.90
44037;DHT22;62488;-37.670;-63.532;2022-09-25T07:32:18;11.20;99.90
44037;DHT22;62488;-37.670;-63.532;2022-09-25T07:34:46;11.20;99.90
44037;DHT22;62488;-37.670;-63.532;2022-09-25T07:37:17;11.20;99.90
44037;DHT22;62488;-37.670;-63.532;2022-09-25T07:40:04;11.20;99.90
44037;DHT22;62488;-37.670;-63.532;2022-09-25T07:42:36;11.20;99.90
44037;DHT22;62488;-37.670;-63.532;2022-09-25T07:45:05;11.20;99.90
44037;DHT22;62488;-37.670;-63.532;2022-09-25T07:47:32;11.20;99.90
44037;DHT22;62488;-37.670;-63.532;2022-09-25T07:49:59;11.20;99.90
44037;DHT22;62488;-37.670;-63.532;2022-09-25T07:52:27;11.20;99.90
44037;DHT22;62488;-37.670;-63.532;2022-09-25T07:54:54;11.20;99.90
44037;DHT22;62488;-37.670;-63.532;2022-09-25T07:57:21;11.20;99.90
44037;DHT22;62488;-37.670;-63.532;2022-09-25T07:59:48;11.20;99.90
44037;DHT22;62488;-37.670;-63.532;2022-09-25T08:02:16;11.20;99.90
44037;DHT22;62488;-37.670;-63.532;2022-09-25T08:04:48;11.20;99.90
44037;DHT22;62488;-37.670;-63.532;2022-09-25T08:07:16;11.20;99.90
44037;DHT22;62488;-37.670;-63.532;2022-09-25T08:09:43;11.20;99.90
44037;DHT22;62488;-37.670;-63.532;2022-09-25T08:12:10;11.20;99.90
44037;DHT22;62488;-37.670;-63.532;2022-09-25T08:14:39;11.20;99.90
44037;DHT22;62488;-37.670;-63.532;2022-09-25T08:17:07;11.20;99.90
44037;DHT22;62488;-37.670;-63.532;2022-09-25T08:19:35;11.50;99.90
44037;DHT22;62488;-37.670;-63.532;2022-09-25T08:22:02;11.40;99.90
44037;DHT22;62488;-37.670;-63.532;2022-09-25T08:24:30;11.60;99.90
44037;DHT22;62488;-37.670;-63.532;2022-09-25T08:26:58;11.40;99.90
44037;DHT22;62488;-37.670;-63.532;2022-09-25T08:29:26;11.30;99.90
44037;DHT22;62488;-37.670;-63.532;2022-09-25T08:31:53;11.30;99.90
44037;DHT22;62488;-37.670;-63.532;2022-09-25T08:34:21;11.40;99.90
44037;DHT22;62488;-37.670;-63.532;2022-09-25T08:36:49;11.50;99.90
44037;DHT22;62488;-37.670;-63.532;2022-09-25T08:39:17;11.60;99.90
44037;DHT22;62488;-37.670;-63.532;2022-09-25T08:41:51;11.50;99.90
44037;DHT22;62488;-37.670;-63.532;2022-09-25T08:44:35;11.40;99.90
44037;DHT22;62488;-37.670;-63.532;2022-09-25T08:52:28;11.30;99.90
44037;DHT22;62488;-37.670;-63.532;2022-09-25T08:54:58;11.30;99.90
44037;DHT22;62488;-37.670;-63.532;2022-09-25T08:57:35;11.30;99.90
44037;DHT22;62488;-37.670;-63.532;2022-09-25T09:00:17;11.30;99.90
44037;DHT22;62488;-37.670;-63.532;2022-09-25T09:02:56;11.30;99.90
44037;DHT22;62488;-37.670;-63.532;2022-09-25T09:05:30;11.30;99.90
44037;DHT22;62488;-37.670;-63.532;2022-09-25T09:08:35;11.30;99.90
44037;DHT22;62488;-37.670;-63.532;2022-09-25T09:11:07;11.20;99.90
44037;DHT22;62488;-37.670;-63.532;2022-09-25T09:13:52;11.20;99.90
44037;DHT22;62488;-37.670;-63.532;2022-09-25T09:16:45;11.10;99.90
44037;DHT22;62488;-37.670;-63.532;2022-09-25T09:19:13;11.00;99.90
44037;DHT22;62488;-37.670;-63.532;2022-09-25T09:21:46;11.00;99.90
44037;DHT22;62488;-37.670;-63.532;2022-09-25T09:38:34;11.00;99.90
44037;DHT22;62488;-37.670;-63.532;2022-09-25T09:41:57;10.90;99.90
44037;DHT22;62488;-37.670;-63.532;2022-09-25T09:53:36;10.90;99.90
44037;DHT22;62488;-37.670;-63.532;2022-09-25T09:59:30;10.90;99.90
44037;DHT22;62488;-37.670;-63.532;2022-09-25T10:04:46;11.00;99.90
44037;DHT22;62488;-37.670;-63.532;2022-09-25T10:07:17;11.00;99.90
44037;DHT22;62488;-37.670;-63.532;2022-09-25T10:09:45;11.00;99.90
44037;DHT22;62488;-37.670;-63.532;2022-09-25T10:12:31;10.90;99.90
44037;DHT22;62488;-37.670;-63.532;2022-09-25T10:15:11;11.00;99.90
44037;DHT22;62488;-37.670;-63.532;2022-09-25T10:17:38;10.90;99.90
44037;DHT22;62488;-37.670;-63.532;2022-09-25T10:20:19;10.90;99.90
44037;DHT22;62488;-37.670;-63.532;2022-09-25T10:22:53;11.00;99.90
44037;DHT22;62488;-37.670;-63.532;2022-09-25T10:25:37;11.10;99.90
44037;DHT22;62488;-37.670;-63.532;2022-09-25T10:28:39;11.20;99.90
44037;DHT22;62488;-37.670;-63.532;2022-09-25T10:31:42;11.20;99.90
44037;DHT22;62488;-37.670;-63.532;2022-09-25T10:34:38;11.30;99.90
44037;DHT22;62488;-37.670;-63.532;2022-09-25T10:37:19;11.30;99.90
44037;DHT22;62488;-37.670;-63.532;2022-09-25T10:40:07;11.40;99.90
44037;DHT22;62488;-37.670;-63.532;2022-09-25T10:42:48;11.40;99.90
44037;DHT22;62488;-37.670;-63.532;2022-09-25T10:45:34;11.40;99.90
44037;DHT22;62488;-37.670;-63.532;2022-09-25T10:48:33;11.40;99.90
44037;DHT22;62488;-37.670;-63.532;2022-09-25T10:51:19;11.50;99.90
44037;DHT22;62488;-37.670;-63.532;2022-09-25T10:53:50;11.50;99.90
44037;DHT22;62488;-37.670;-63.532;2022-09-25T10:56:30;11.50;99.90
44037;DHT22;62488;-37.670;-63.532;2022-09-25T10:59:13;11.40;99.90
44037;DHT22;62488;-37.670;-63.532;2022-09-25T11:01:50;11.40;99.90
44037;DHT22;62488;-37.670;-63.532;2022-09-25T11:04:27;11.40;99.90
44037;DHT22;62488;-37.670;-63.532;2022-09-25T11:06:57;11.40;99.90
44037;DHT22;62488;-37.670;-63.532;2022-09-25T11:09:31;11.40;99.90
44037;DHT22;62488;-37.670;-63.532;2022-09-25T11:12:20;11.40;99.90
44037;DHT22;62488;-37.670;-63.532;2022-09-25T11:14:59;11.40;99.90
44037;DHT22;62488;-37.670;-63.532;2022-09-25T11:20:24;11.50;99.90
44037;DHT22;62488;-37.670;-63.532;2022-09-25T11:31:00;11.80;99.90
44037;DHT22;62488;-37.670;-63.532;2022-09-25T11:33:48;11.80;99.90
44037;DHT22;62488;-37.670;-63.532;2022-09-25T11:39:40;11.90;99.90
44037;DHT22;62488;-37.670;-63.532;2022-09-25T11:42:47;11.90;99.90
44037;DHT22;62488;-37.670;-63.532;2022-09-25T11:45:30;12.00;99.90
44037;DHT22;62488;-37.670;-63.532;2022-09-25T11:51:31;11.90;99.90
44037;DHT22;62488;-37.670;-63.532;2022-09-25T11:54:07;11.90;99.90
44037;DHT22;62488;-37.670;-63.532;2022-09-25T11:57:27;11.90;99.90
44037;DHT22;62488;-37.670;-63.532;2022-09-25T12:00:26;12.00;99.90
44037;DHT22;62488;-37.670;-63.532;2022-09-25T12:06:59;12.00;99.90
44037;DHT22;62488;-37.670;-63.532;2022-09-25T12:24:58;12.00;99.90
44037;DHT22;62488;-37.670;-63.532;2022-09-25T12:28:19;12.30;99.90
44037;DHT22;62488;-37.670;-63.532;2022-09-25T12:33:58;12.50;99.90
44037;DHT22;62488;-37.670;-63.532;2022-09-25T12:40:55;12.40;99.90
44037;DHT22;62488;-37.670;-63.532;2022-09-25T12:43:38;12.50;99.90
44037;DHT22;62488;-37.670;-63.532;2022-09-25T12:50:12;12.50;99.90
44037;DHT22;62488;-37.670;-63.532;2022-09-25T12:52:52;12.50;99.90
44037;DHT22;62488;-37.670;-63.532;2022-09-25T13:13:52;13.50;99.90
44037;DHT22;62488;-37.670;-63.532;2022-09-25T13:16:25;13.60;99.90
44037;DHT22;62488;-37.670;-63.532;2022-09-25T13:19:20;13.80;99.90
44037;DHT22;62488;-37.670;-63.532;2022-09-25T13:25:10;14.10;99.90
44037;DHT22;62488;-37.670;-63.532;2022-09-25T13:27:44;14.20;99.90
44037;DHT22;62488;-37.670;-63.532;2022-09-25T13:30:29;14.30;99.90
44037;DHT22;62488;-37.670;-63.532;2022-09-25T13:32:58;14.30;99.90
44037;DHT22;62488;-37.670;-63.532;2022-09-25T13:35:29;14.40;99.90
44037;DHT22;62488;-37.670;-63.532;2022-09-25T13:41:13;14.50;99.90
44037;DHT22;62488;-37.670;-63.532;2022-09-25T13:50:16;14.40;99.90
44037;DHT22;62488;-37.670;-63.532;2022-09-25T13:55:30;14.50;99.90
44037;DHT22;62488;-37.670;-63.532;2022-09-25T13:58:00;14.50;99.90
44037;DHT22;62488;-37.670;-63.532;2022-09-25T14:03:45;14.50;99.90
44037;DHT22;62488;-37.670;-63.532;2022-09-25T14:06:32;14.40;99.90
44037;DHT22;62488;-37.670;-63.532;2022-09-25T14:09:07;14.40;99.90
44037;DHT22;62488;-37.670;-63.532;2022-09-25T14:11:41;14.20;99.90
44037;DHT22;62488;-37.670;-63.532;2022-09-25T14:14:50;14.20;99.90
44037;DHT22;62488;-37.670;-63.532;2022-09-25T14:17:27;14.30;99.90
44037;DHT22;62488;-37.670;-63.532;2022-09-25T14:20:05;14.30;99.90
44037;DHT22;62488;-37.670;-63.532;2022-09-25T14:22:55;14.30;99.90
44037;DHT22;62488;-37.670;-63.532;2022-09-25T14:25:33;14.30;99.90
44037;DHT22;62488;-37.670;-63.532;2022-09-25T14:28:26;14.40;99.90
44037;DHT22;62488;-37.670;-63.532;2022-09-25T14:37:34;14.70;99.90
44037;DHT22;62488;-37.670;-63.532;2022-09-25T14:40:39;14.80;99.90
44037;DHT22;62488;-37.670;-63.532;2022-09-25T14:46:08;15.10;99.90
44037;DHT22;62488;-37.670;-63.532;2022-09-25T14:48:58;14.90;99.90
44037;DHT22;62488;-37.670;-63.532;2022-09-25T14:51:30;15.10;99.90
44037;DHT22;62488;-37.670;-63.532;2022-09-25T14:54:03;15.20;99.90
44037;DHT22;62488;-37.670;-63.532;2022-09-25T14:56:33;15.40;99.90
44037;DHT22;62488;-37.670;-63.532;2022-09-25T14:59:12;15.40;99.90
44037;DHT22;62488;-37.670;-63.532;2022-09-25T15:01:52;15.50;99.90
44037;DHT22;62488;-37.670;-63.532;2022-09-25T15:04:30;15.40;99.90
44037;DHT22;62488;-37.670;-63.532;2022-09-25T15:09:39;15.50;99.90
44037;DHT22;62488;-37.670;-63.532;2022-09-25T15:12:29;15.50;99.90
44037;DHT22;62488;-37.670;-63.532;2022-09-25T15:15:06;15.70;99.90
44037;DHT22;62488;-37.670;-63.532;2022-09-25T15:17:47;15.90;99.90
44037;DHT22;62488;-37.670;-63.532;2022-09-25T15:20:20;16.10;99.90
44037;DHT22;62488;-37.670;-63.532;2022-09-25T15:23:11;16.30;99.90
44037;DHT22;62488;-37.670;-63.532;2022-09-25T15:26:00;16.30;99.90
44037;DHT22;62488;-37.670;-63.532;2022-09-25T15:28:50;16.40;99.90
44037;DHT22;62488;-37.670;-63.532;2022-09-25T15:31:17;16.60;99.90
44037;DHT22;62488;-37.670;-63.532;2022-09-25T15:34:24;16.80;99.90
44037;DHT22;62488;-37.670;-63.532;2022-09-25T15:37:21;16.90;99.90
44037;DHT22;62488;-37.670;-63.532;2022-09-25T15:39:53;17.00;99.90
44037;DHT22;62488;-37.670;-63.532;2022-09-25T15:42:23;17.40;99.90
44037;DHT22;62488;-37.670;-63.532;2022-09-25T15:45:03;17.20;99.90
44037;DHT22;62488;-37.670;-63.532;2022-09-25T15:47:45;17.40;99.90
44037;DHT22;62488;-37.670;-63.532;2022-09-25T15:50:23;18.10;99.90
44037;DHT22;62488;-37.670;-63.532;2022-09-25T15:52:54;18.20;99.90
44037;DHT22;62488;-37.670;-63.532;2022-09-25T15:55:22;18.80;99.90
44037;DHT22;62488;-37.670;-63.532;2022-09-25T15:57:55;18.70;99.90
44037;DHT22;62488;-37.670;-63.532;2022-09-25T16:00:29;18.40;99.90
44037;DHT22;62488;-37.670;-63.532;2022-09-25T16:03:16;18.00;99.90
44037;DHT22;62488;-37.670;-63.532;2022-09-25T16:06:04;18.50;99.90
44037;DHT22;62488;-37.670;-63.532;2022-09-25T16:08:33;18.20;99.90
44037;DHT22;62488;-37.670;-63.532;2022-09-25T16:11:23;17.60;99.90
44037;DHT22;62488;-37.670;-63.532;2022-09-25T16:13:53;17.20;99.90
44037;DHT22;62488;-37.670;-63.532;2022-09-25T16:16:29;17.30;99.90
44037;DHT22;62488;-37.670;-63.532;2022-09-25T16:18:58;17.00;99.90
44037;DHT22;62488;-37.670;-63.532;2022-09-25T16:21:30;16.90;99.90
44037;DHT22;62488;-37.670;-63.532;2022-09-25T16:24:01;16.60;99.90
44037;DHT22;62488;-37.670;-63.532;2022-09-25T16:27:06;16.60;99.90
44037;DHT22;62488;-37.670;-63.532;2022-09-25T16:29:47;16.50;99.90
44037;DHT22;62488;-37.670;-63.532;2022-09-25T16:32:31;16.40;99.90
44037;DHT22;62488;-37.670;-63.532;2022-09-25T16:35:01;16.40;99.90
44037;DHT22;62488;-37.670;-63.532;2022-09-25T16:37:32;16.40;99.90
44037;DHT22;62488;-37.670;-63.532;2022-09-25T16:40:24;16.40;99.90
44037;DHT22;62488;-37.670;-63.532;2022-09-25T16:43:00;16.40;99.90
44037;DHT22;62488;-37.670;-63.532;2022-09-25T16:45:39;16.50;99.90
44037;DHT22;62488;-37.670;-63.532;2022-09-25T16:48:58;16.20;99.90
44037;DHT22;62488;-37.670;-63.532;2022-09-25T16:51:28;16.10;99.90
44037;DHT22;62488;-37.670;-63.532;2022-09-25T16:54:08;16.20;99.90
44037;DHT22;62488;-37.670;-63.532;2022-09-25T16:56:55;16.30;99.90
44037;DHT22;62488;-37.670;-63.532;2022-09-25T16:59:28;16.60;99.90
44037;DHT22;62488;-37.670;-63.532;2022-09-25T17:02:00;16.60;99.90
44037;DHT22;62488;-37.670;-63.532;2022-09-25T17:04:33;16.50;99.90
44037;DHT22;62488;-37.670;-63.532;2022-09-25T17:07:16;16.40;99.90
44037;DHT22;62488;-37.670;-63.532;2022-09-25T17:09:48;16.20;99.90
44037;DHT22;62488;-37.670;-63.532;2022-09-25T17:12:23;16.10;99.90
44037;DHT22;62488;-37.670;-63.532;2022-09-25T17:15:32;16.00;99.90
44037;DHT22;62488;-37.670;-63.532;2022-09-25T17:18:23;15.90;99.90
44037;DHT22;62488;-37.670;-63.532;2022-09-25T17:20:58;15.90;99.90
44037;DHT22;62488;-37.670;-63.532;2022-09-25T17:23:26;15.90;99.90
44037;DHT22;62488;-37.670;-63.532;2022-09-25T17:26:24;15.80;99.90
44037;DHT22;62488;-37.670;-63.532;2022-09-25T17:29:21;15.80;99.90
44037;DHT22;62488;-37.670;-63.532;2022-09-25T17:35:00;15.90;99.90
44037;DHT22;62488;-37.670;-63.532;2022-09-25T17:37:27;15.70;99.90
44037;DHT22;62488;-37.670;-63.532;2022-09-25T17:39:57;15.60;99.90
44037;DHT22;62488;-37.670;-63.532;2022-09-25T17:42:28;15.50;99.90
44037;DHT22;62488;-37.670;-63.532;2022-09-25T17:44:58;15.50;99.90
44037;DHT22;62488;-37.670;-63.532;2022-09-25T17:47:51;15.50;99.90
44037;DHT22;62488;-37.670;-63.532;2022-09-25T17:50:43;15.40;99.90
44037;DHT22;62488;-37.670;-63.532;2022-09-25T17:53:30;15.40;99.90
44037;DHT22;62488;-37.670;-63.532;2022-09-25T17:56:03;15.30;99.90
44037;DHT22;62488;-37.670;-63.532;2022-09-25T17:58:35;15.20;99.90
44037;DHT22;62488;-37.670;-63.532;2022-09-25T18:01:13;15.20;99.90
44037;DHT22;62488;-37.670;-63.532;2022-09-25T18:04:00;15.20;99.90
44037;DHT22;62488;-37.670;-63.532;2022-09-25T18:06:43;15.20;99.90
44037;DHT22;62488;-37.670;-63.532;2022-09-25T18:09:17;15.20;99.90
44037;DHT22;62488;-37.670;-63.532;2022-09-25T18:15:03;15.10;99.90
44037;DHT22;62488;-37.670;-63.532;2022-09-25T18:17:37;15.20;99.90
44037;DHT22;62488;-37.670;-63.532;2022-09-25T18:20:09;15.20;99.90
44037;DHT22;62488;-37.670;-63.532;2022-09-25T18:22:59;15.10;99.90
44037;DHT22;62488;-37.670;-63.532;2022-09-25T18:28:57;15.00;99.90
44037;DHT22;62488;-37.670;-63.532;2022-09-25T18:31:39;14.80;99.90
44037;DHT22;62488;-37.670;-63.532;2022-09-25T18:34:10;14.80;99.90
44037;DHT22;62488;-37.670;-63.532;2022-09-25T18:36:48;14.70;99.90
44037;DHT22;62488;-37.670;-63.532;2022-09-25T19:04:42;14.40;99.90